sensor_id;sensor_type;location;lat;lon;timestamp;temperature;humidity
6102;DHT22;3081;50.584;7.032;2023-07-29T00:01:13;19.50;99.90
6102;DHT22;3081;50.584;7.032;2023-07-29T00:03:39;19.50;99.90
6102;DHT22;3081;50.584;7.032;2023-07-29T00:06:06;19.50;99.90
6102;DHT22;3081;50.584;7.032;2023-07-29T00:08:33;19.40;99.90
6102;DHT22;3081;50.584;7.032;2023-07-29T00:11:00;19.40;99.90
6102;DHT22;3081;50.584;7.032;2023-07-29T00:13:28;19.30;99.90
6102;DHT22;3081;50.584;7.032;2023-07-29T00:15:55;19.30;99.90
6102;DHT22;3081;50.584;7.032;2023-07-29T00:18:22;19.30;99.90
6102;DHT22;3081;50.584;7.032;2023-07-29T00:20:49;19.30;99.90
6102;DHT22;3081;50.584;7.032;2023-07-29T00:23:17;19.30;99.90
6102;DHT22;3081;50.584;7.032;2023-07-29T00:25:45;19.30;99.90
6102;DHT22;3081;50.584;7.032;2023-07-29T00:28:12;19.20;99.90
6102;DHT22;3081;50.584;7.032;2023-07-29T00:30:41;19.30;99.90
6102;DHT22;3081;50.584;7.032;2023-07-29T00:33:08;19.30;99.90
6102;DHT22;3081;50.584;7.032;2023-07-29T00:35:35;19.30;99.90
6102;DHT22;3081;50.584;7.032;2023-07-29T00:38:02;19.30;99.90
6102;DHT22;3081;50.584;7.032;2023-07-29T00:40:29;19.30;99.90
6102;DHT22;3081;50.584;7.032;2023-07-29T00:42:56;19.30;99.90
6102;DHT22;3081;50.584;7.032;2023-07-29T00:45:23;19.30;99.90
6102;DHT22;3081;50.584;7.032;2023-07-29T00:47:53;19.20;99.90
6102;DHT22;3081;50.584;7.032;2023-07-29T00:50:20;19.20;99.90
6102;DHT22;3081;50.584;7.032;2023-07-29T00:52:48;19.20;99.90
6102;DHT22;3081;50.584;7.032;2023-07-29T00:55:16;19.20;99.90
6102;DHT22;3081;50.584;7.032;2023-07-29T00:57:43;19.20;99.90
6102;DHT22;3081;50.584;7.032;2023-07-29T01:00:14;19.20;99.90
6102;DHT22;3081;50.584;7.032;2023-07-29T01:02:42;19.30;99.90
6102;DHT22;3081;50.584;7.032;2023-07-29T01:05:11;19.30;99.90
6102;DHT22;3081;50.584;7.032;2023-07-29T01:07:44;19.40;99.90
6102;DHT22;3081;50.584;7.032;2023-07-29T01:10:26;19.40;99.90
6102;DHT22;3081;50.584;7.032;2023-07-29T01:13:01;19.40;99.90
6102;DHT22;3081;50.584;7.032;2023-07-29T01:15:31;19.40;99.90
6102;DHT22;3081;50.584;7.032;2023-07-29T01:18:04;19.40;99.90
6102;DHT22;3081;50.584;7.032;2023-07-29T01:20:37;19.40;99.90
6102;DHT22;3081;50.584;7.032;2023-07-29T01:23:05;19.30;99.90
6102;DHT22;3081;50.584;7.032;2023-07-29T01:25:33;19.20;99.90
6102;DHT22;3081;50.584;7.032;2023-07-29T01:28:00;19.20;99.90
6102;DHT22;3081;50.584;7.032;2023-07-29T01:30:31;19.10;99.90
6102;DHT22;3081;50.584;7.032;2023-07-29T01:33:05;19.00;99.90
6102;DHT22;3081;50.584;7.032;2023-07-29T01:35:39;18.90;99.90
6102;DHT22;3081;50.584;7.032;2023-07-29T01:38:12;18.80;99.90
6102;DHT22;3081;50.584;7.032;2023-07-29T01:40:42;18.70;99.90
6102;DHT22;3081;50.584;7.032;2023-07-29T01:43:10;18.70;99.90
6102;DHT22;3081;50.584;7.032;2023-07-29T01:45:38;18.70;99.90
6102;DHT22;3081;50.584;7.032;2023-07-29T01:48:05;18.70;99.90
6102;DHT22;3081;50.584;7.032;2023-07-29T01:50:32;18.70;99.90
6102;DHT22;3081;50.584;7.032;2023-07-29T01:52:59;18.80;99.90
6102;DHT22;3081;50.584;7.032;2023-07-29T01:55:26;18.80;99.90
6102;DHT22;3081;50.584;7.032;2023-07-29T01:57:54;18.80;99.90
6102;DHT22;3081;50.584;7.032;2023-07-29T02:00:21;18.80;99.90
6102;DHT22;3081;50.584;7.032;2023-07-29T02:02:48;18.80;99.90
6102;DHT22;3081;50.584;7.032;2023-07-29T02:05:15;18.80;99.90
6102;DHT22;3081;50.584;7.032;2023-07-29T02:07:42;18.80;99.90
6102;DHT22;3081;50.584;7.032;2023-07-29T02:10:09;18.80;99.90
6102;DHT22;3081;50.584;7.032;2023-07-29T02:12:36;18.80;99.90
6102;DHT22;3081;50.584;7.032;2023-07-29T02:15:05;18.80;99.90
6102;DHT22;3081;50.584;7.032;2023-07-29T02:17:32;18.80;99.90
6102;DHT22;3081;50.584;7.032;2023-07-29T02:19:59;18.80;99.90
6102;DHT22;3081;50.584;7.032;2023-07-29T02:22:26;18.80;99.90
6102;DHT22;3081;50.584;7.032;2023-07-29T02:24:53;18.80;99.90
6102;DHT22;3081;50.584;7.032;2023-07-29T02:27:20;18.80;99.90
6102;DHT22;3081;50.584;7.032;2023-07-29T02:29:47;18.80;99.90
6102;DHT22;3081;50.584;7.032;2023-07-29T02:32:15;18.80;99.90
6102;DHT22;3081;50.584;7.032;2023-07-29T02:34:42;18.90;99.90
6102;DHT22;3081;50.584;7.032;2023-07-29T02:37:09;18.90;99.90
6102;DHT22;3081;50.584;7.032;2023-07-29T02:39:36;18.80;99.90
6102;DHT22;3081;50.584;7.032;2023-07-29T02:42:03;18.90;99.90
6102;DHT22;3081;50.584;7.032;2023-07-29T02:44:30;18.90;99.90
6102;DHT22;3081;50.584;7.032;2023-07-29T02:46:57;18.90;99.90
6102;DHT22;3081;50.584;7.032;2023-07-29T02:49:26;19.00;99.90
6102;DHT22;3081;50.584;7.032;2023-07-29T02:51:52;19.00;99.90
6102;DHT22;3081;50.584;7.032;2023-07-29T02:54:19;19.00;99.90
6102;DHT22;3081;50.584;7.032;2023-07-29T02:56:46;19.00;99.90
6102;DHT22;3081;50.584;7.032;2023-07-29T02:59:13;19.00;99.90
6102;DHT22;3081;50.584;7.032;2023-07-29T03:01:40;19.00;99.90
6102;DHT22;3081;50.584;7.032;2023-07-29T03:04:07;19.00;99.90
6102;DHT22;3081;50.584;7.032;2023-07-29T03:06:35;19.00;99.90
6102;DHT22;3081;50.584;7.032;2023-07-29T03:09:02;19.00;99.90
6102;DHT22;3081;50.584;7.032;2023-07-29T03:11:29;19.00;99.90
6102;DHT22;3081;50.584;7.032;2023-07-29T03:13:56;19.00;99.90
6102;DHT22;3081;50.584;7.032;2023-07-29T03:16:23;19.00;99.90
6102;DHT22;3081;50.584;7.032;2023-07-29T03:18:50;19.00;99.90
6102;DHT22;3081;50.584;7.032;2023-07-29T03:21:17;19.00;99.90
6102;DHT22;3081;50.584;7.032;2023-07-29T03:23:45;19.00;99.90
6102;DHT22;3081;50.584;7.032;2023-07-29T03:26:12;19.00;99.90
6102;DHT22;3081;50.584;7.032;2023-07-29T03:28:40;19.00;99.90
6102;DHT22;3081;50.584;7.032;2023-07-29T03:31:08;19.10;99.90
6102;DHT22;3081;50.584;7.032;2023-07-29T03:33:35;19.10;99.90
6102;DHT22;3081;50.584;7.032;2023-07-29T03:36:02;19.10;99.90
6102;DHT22;3081;50.584;7.032;2023-07-29T03:38:29;19.00;99.90
6102;DHT22;3081;50.584;7.032;2023-07-29T03:40:59;19.00;99.90
6102;DHT22;3081;50.584;7.032;2023-07-29T03:43:28;18.90;99.90
6102;DHT22;3081;50.584;7.032;2023-07-29T03:45:54;18.80;99.90
6102;DHT22;3081;50.584;7.032;2023-07-29T03:48:21;18.70;99.90
6102;DHT22;3081;50.584;7.032;2023-07-29T03:50:48;18.70;99.90
6102;DHT22;3081;50.584;7.032;2023-07-29T03:53:15;18.70;99.90
6102;DHT22;3081;50.584;7.032;2023-07-29T03:55:42;18.70;99.90
6102;DHT22;3081;50.584;7.032;2023-07-29T03:58:11;18.80;99.90
6102;DHT22;3081;50.584;7.032;2023-07-29T04:00:38;18.80;99.90
6102;DHT22;3081;50.584;7.032;2023-07-29T04:03:05;18.80;99.90
6102;DHT22;3081;50.584;7.032;2023-07-29T04:05:32;18.80;99.90
6102;DHT22;3081;50.584;7.032;2023-07-29T04:07:59;18.80;99.90
6102;DHT22;3081;50.584;7.032;2023-07-29T04:10:26;18.70;99.90
6102;DHT22;3081;50.584;7.032;2023-07-29T04:12:53;18.70;99.90
6102;DHT22;3081;50.584;7.032;2023-07-29T04:15:21;18.60;99.90
6102;DHT22;3081;50.584;7.032;2023-07-29T04:17:48;18.70;99.90
6102;DHT22;3081;50.584;7.032;2023-07-29T04:20:15;18.60;99.90
6102;DHT22;3081;50.584;7.032;2023-07-29T04:22:42;18.60;99.90
6102;DHT22;3081;50.584;7.032;2023-07-29T04:25:09;18.50;99.90
6102;DHT22;3081;50.584;7.032;2023-07-29T04:27:36;18.50;99.90
6102;DHT22;3081;50.584;7.032;2023-07-29T04:30:03;18.50;99.90
6102;DHT22;3081;50.584;7.032;2023-07-29T04:32:32;18.50;99.90
6102;DHT22;3081;50.584;7.032;2023-07-29T04:34:59;18.40;99.90
6102;DHT22;3081;50.584;7.032;2023-07-29T04:37:25;18.50;99.90
6102;DHT22;3081;50.584;7.032;2023-07-29T04:39:52;18.50;99.90
6102;DHT22;3081;50.584;7.032;2023-07-29T04:42:19;18.60;99.90
6102;DHT22;3081;50.584;7.032;2023-07-29T04:44:46;18.60;99.90
6102;DHT22;3081;50.584;7.032;2023-07-29T04:47:13;18.60;99.90
6102;DHT22;3081;50.584;7.032;2023-07-29T04:49:41;18.60;99.90
6102;DHT22;3081;50.584;7.032;2023-07-29T04:52:08;18.60;99.90
6102;DHT22;3081;50.584;7.032;2023-07-29T04:54:35;18.60;99.90
6102;DHT22;3081;50.584;7.032;2023-07-29T04:57:02;18.60;99.90
6102;DHT22;3081;50.584;7.032;2023-07-29T04:59:29;18.50;99.90
6102;DHT22;3081;50.584;7.032;2023-07-29T05:01:56;18.60;99.90
6102;DHT22;3081;50.584;7.032;2023-07-29T05:04:23;18.70;99.90
6102;DHT22;3081;50.584;7.032;2023-07-29T05:06:51;18.70;99.90
6102;DHT22;3081;50.584;7.032;2023-07-29T05:09:19;18.70;99.90
6102;DHT22;3081;50.584;7.032;2023-07-29T05:11:46;18.80;99.90
6102;DHT22;3081;50.584;7.032;2023-07-29T05:14:15;18.80;99.90
6102;DHT22;3081;50.584;7.032;2023-07-29T05:16:42;18.80;99.90
6102;DHT22;3081;50.584;7.032;2023-07-29T05:19:10;18.90;99.90
6102;DHT22;3081;50.584;7.032;2023-07-29T05:21:37;19.00;99.90
6102;DHT22;3081;50.584;7.032;2023-07-29T05:24:05;19.10;99.90
6102;DHT22;3081;50.584;7.032;2023-07-29T05:26:32;19.20;99.90
6102;DHT22;3081;50.584;7.032;2023-07-29T05:28:59;19.30;99.90
6102;DHT22;3081;50.584;7.032;2023-07-29T05:31:26;19.40;99.90
6102;DHT22;3081;50.584;7.032;2023-07-29T05:33:53;19.40;99.90
6102;DHT22;3081;50.584;7.032;2023-07-29T05:36:20;19.40;99.90
6102;DHT22;3081;50.584;7.032;2023-07-29T05:38:47;19.40;99.90
6102;DHT22;3081;50.584;7.032;2023-07-29T05:41:15;19.40;99.90
6102;DHT22;3081;50.584;7.032;2023-07-29T05:43:42;19.50;99.90
6102;DHT22;3081;50.584;7.032;2023-07-29T05:46:10;19.50;99.90
6102;DHT22;3081;50.584;7.032;2023-07-29T05:48:37;19.50;99.90
6102;DHT22;3081;50.584;7.032;2023-07-29T05:51:04;19.60;99.90
6102;DHT22;3081;50.584;7.032;2023-07-29T05:53:31;19.60;99.90
6102;DHT22;3081;50.584;7.032;2023-07-29T05:55:58;19.60;99.90
6102;DHT22;3081;50.584;7.032;2023-07-29T05:58:27;19.60;99.90
6102;DHT22;3081;50.584;7.032;2023-07-29T06:00:53;19.50;99.90
6102;DHT22;3081;50.584;7.032;2023-07-29T06:03:20;19.50;99.90
6102;DHT22;3081;50.584;7.032;2023-07-29T06:05:48;19.50;99.90
6102;DHT22;3081;50.584;7.032;2023-07-29T06:08:15;19.50;99.90
6102;DHT22;3081;50.584;7.032;2023-07-29T06:10:42;19.50;99.90
6102;DHT22;3081;50.584;7.032;2023-07-29T06:13:09;19.60;99.90
6102;DHT22;3081;50.584;7.032;2023-07-29T06:15:37;19.60;99.90
6102;DHT22;3081;50.584;7.032;2023-07-29T06:18:04;19.70;99.90
6102;DHT22;3081;50.584;7.032;2023-07-29T06:20:31;19.80;99.90
6102;DHT22;3081;50.584;7.032;2023-07-29T06:22:58;19.80;99.90
6102;DHT22;3081;50.584;7.032;2023-07-29T06:25:25;19.80;99.90
6102;DHT22;3081;50.584;7.032;2023-07-29T06:27:52;19.80;99.90
6102;DHT22;3081;50.584;7.032;2023-07-29T06:30:19;19.80;99.90
6102;DHT22;3081;50.584;7.032;2023-07-29T06:32:47;19.70;99.90
6102;DHT22;3081;50.584;7.032;2023-07-29T06:35:14;19.70;99.90
6102;DHT22;3081;50.584;7.032;2023-07-29T06:37:41;19.70;99.90
6102;DHT22;3081;50.584;7.032;2023-07-29T06:40:08;19.90;99.90
6102;DHT22;3081;50.584;7.032;2023-07-29T06:42:35;20.10;99.90
6102;DHT22;3081;50.584;7.032;2023-07-29T06:45:03;20.30;99.90
6102;DHT22;3081;50.584;7.032;2023-07-29T06:47:31;20.50;99.90
6102;DHT22;3081;50.584;7.032;2023-07-29T06:49:59;20.70;99.90
6102;DHT22;3081;50.584;7.032;2023-07-29T06:52:26;20.90;99.90
6102;DHT22;3081;50.584;7.032;2023-07-29T06:54:53;21.10;99.90
6102;DHT22;3081;50.584;7.032;2023-07-29T06:57:20;21.30;99.90
6102;DHT22;3081;50.584;7.032;2023-07-29T06:59:46;21.50;99.90
6102;DHT22;3081;50.584;7.032;2023-07-29T07:02:14;21.60;99.90
6102;DHT22;3081;50.584;7.032;2023-07-29T07:04:40;21.70;99.90
6102;DHT22;3081;50.584;7.032;2023-07-29T07:07:09;21.70;99.90
6102;DHT22;3081;50.584;7.032;2023-07-29T07:09:36;21.70;99.90
6102;DHT22;3081;50.584;7.032;2023-07-29T07:12:03;21.90;99.90
6102;DHT22;3081;50.584;7.032;2023-07-29T07:14:30;22.10;99.90
6102;DHT22;3081;50.584;7.032;2023-07-29T07:16:57;22.40;99.90
6102;DHT22;3081;50.584;7.032;2023-07-29T07:19:24;22.60;99.90
6102;DHT22;3081;50.584;7.032;2023-07-29T07:21:51;22.70;99.90
6102;DHT22;3081;50.584;7.032;2023-07-29T07:24:19;22.80;99.90
6102;DHT22;3081;50.584;7.032;2023-07-29T07:26:46;22.90;99.90
6102;DHT22;3081;50.584;7.032;2023-07-29T07:29:13;23.00;99.90
6102;DHT22;3081;50.584;7.032;2023-07-29T07:31:40;23.00;99.90
6102;DHT22;3081;50.584;7.032;2023-07-29T07:34:07;23.10;99.90
6102;DHT22;3081;50.584;7.032;2023-07-29T07:36:33;23.10;99.90
6102;DHT22;3081;50.584;7.032;2023-07-29T07:39:00;23.00;99.90
6102;DHT22;3081;50.584;7.032;2023-07-29T07:41:29;22.80;99.90
6102;DHT22;3081;50.584;7.032;2023-07-29T07:43:56;22.60;99.90
6102;DHT22;3081;50.584;7.032;2023-07-29T07:46:22;22.60;99.90
6102;DHT22;3081;50.584;7.032;2023-07-29T07:48:49;22.60;99.90
6102;DHT22;3081;50.584;7.032;2023-07-29T07:51:16;22.80;99.90
6102;DHT22;3081;50.584;7.032;2023-07-29T07:53:43;23.00;99.90
6102;DHT22;3081;50.584;7.032;2023-07-29T07:56:10;23.40;99.90
6102;DHT22;3081;50.584;7.032;2023-07-29T07:58:39;23.60;99.90
6102;DHT22;3081;50.584;7.032;2023-07-29T08:01:06;23.90;99.90
6102;DHT22;3081;50.584;7.032;2023-07-29T08:03:34;23.90;99.90
6102;DHT22;3081;50.584;7.032;2023-07-29T08:06:01;23.80;99.90
6102;DHT22;3081;50.584;7.032;2023-07-29T08:08:29;23.60;99.90
6102;DHT22;3081;50.584;7.032;2023-07-29T08:10:57;23.40;99.90
6102;DHT22;3081;50.584;7.032;2023-07-29T08:13:24;23.20;99.90
6102;DHT22;3081;50.584;7.032;2023-07-29T08:15:53;23.10;99.90
6102;DHT22;3081;50.584;7.032;2023-07-29T08:18:20;23.10;99.90
6102;DHT22;3081;50.584;7.032;2023-07-29T08:20:54;23.20;99.90
6102;DHT22;3081;50.584;7.032;2023-07-29T08:23:24;23.30;99.90
6102;DHT22;3081;50.584;7.032;2023-07-29T08:25:55;23.30;99.90
6102;DHT22;3081;50.584;7.032;2023-07-29T08:28:27;23.30;99.90
6102;DHT22;3081;50.584;7.032;2023-07-29T08:30:55;23.10;99.90
6102;DHT22;3081;50.584;7.032;2023-07-29T08:33:22;23.00;99.90
6102;DHT22;3081;50.584;7.032;2023-07-29T08:35:49;22.90;99.90
6102;DHT22;3081;50.584;7.032;2023-07-29T08:38:16;22.80;99.90
6102;DHT22;3081;50.584;7.032;2023-07-29T08:40:49;22.60;99.90
6102;DHT22;3081;50.584;7.032;2023-07-29T08:43:19;22.30;99.90
6102;DHT22;3081;50.584;7.032;2023-07-29T08:45:46;22.10;99.90
6102;DHT22;3081;50.584;7.032;2023-07-29T08:48:19;21.90;99.90
6102;DHT22;3081;50.584;7.032;2023-07-29T08:50:50;21.80;99.90
6102;DHT22;3081;50.584;7.032;2023-07-29T08:53:19;21.80;99.90
6102;DHT22;3081;50.584;7.032;2023-07-29T08:55:47;21.70;99.90
6102;DHT22;3081;50.584;7.032;2023-07-29T08:58:15;21.80;99.90
6102;DHT22;3081;50.584;7.032;2023-07-29T09:00:43;21.90;99.90
6102;DHT22;3081;50.584;7.032;2023-07-29T09:03:10;22.00;99.90
6102;DHT22;3081;50.584;7.032;2023-07-29T09:05:38;22.10;99.90
6102;DHT22;3081;50.584;7.032;2023-07-29T09:08:06;22.10;99.90
6102;DHT22;3081;50.584;7.032;2023-07-29T09:10:35;22.20;99.90
6102;DHT22;3081;50.584;7.032;2023-07-29T09:13:03;22.20;99.90
6102;DHT22;3081;50.584;7.032;2023-07-29T09:15:31;21.80;99.90
6102;DHT22;3081;50.584;7.032;2023-07-29T09:17:59;21.60;99.90
6102;DHT22;3081;50.584;7.032;2023-07-29T09:20:35;21.30;99.90
6102;DHT22;3081;50.584;7.032;2023-07-29T09:23:03;21.20;99.90
6102;DHT22;3081;50.584;7.032;2023-07-29T09:25:33;21.00;99.90
6102;DHT22;3081;50.584;7.032;2023-07-29T09:28:01;21.10;99.90
6102;DHT22;3081;50.584;7.032;2023-07-29T09:30:28;21.10;99.90
6102;DHT22;3081;50.584;7.032;2023-07-29T09:32:55;21.00;99.90
6102;DHT22;3081;50.584;7.032;2023-07-29T09:35:22;20.90;99.90
6102;DHT22;3081;50.584;7.032;2023-07-29T09:37:50;20.90;99.90
6102;DHT22;3081;50.584;7.032;2023-07-29T09:40:20;21.10;99.90
6102;DHT22;3081;50.584;7.032;2023-07-29T09:42:50;21.30;99.90
6102;DHT22;3081;50.584;7.032;2023-07-29T09:45:21;21.60;99.90
6102;DHT22;3081;50.584;7.032;2023-07-29T09:47:49;21.90;99.90
6102;DHT22;3081;50.584;7.032;2023-07-29T09:50:17;22.10;99.90
6102;DHT22;3081;50.584;7.032;2023-07-29T09:52:44;22.10;99.90
6102;DHT22;3081;50.584;7.032;2023-07-29T09:55:12;22.20;99.90
6102;DHT22;3081;50.584;7.032;2023-07-29T09:57:41;22.40;99.90
6102;DHT22;3081;50.584;7.032;2023-07-29T10:00:11;22.40;99.90
6102;DHT22;3081;50.584;7.032;2023-07-29T10:02:39;22.60;99.90
6102;DHT22;3081;50.584;7.032;2023-07-29T10:05:07;22.60;99.90
6102;DHT22;3081;50.584;7.032;2023-07-29T10:07:36;22.80;99.90
6102;DHT22;3081;50.584;7.032;2023-07-29T10:10:05;23.10;99.90
6102;DHT22;3081;50.584;7.032;2023-07-29T10:12:33;23.20;99.90
6102;DHT22;3081;50.584;7.032;2023-07-29T10:15:03;23.40;99.90
6102;DHT22;3081;50.584;7.032;2023-07-29T10:17:31;23.40;99.90
6102;DHT22;3081;50.584;7.032;2023-07-29T10:20:00;23.10;99.90
6102;DHT22;3081;50.584;7.032;2023-07-29T10:22:32;22.80;99.90
6102;DHT22;3081;50.584;7.032;2023-07-29T10:25:03;22.70;99.90
6102;DHT22;3081;50.584;7.032;2023-07-29T10:27:35;22.80;99.90
6102;DHT22;3081;50.584;7.032;2023-07-29T10:30:07;23.00;99.90
6102;DHT22;3081;50.584;7.032;2023-07-29T10:32:35;23.00;99.90
6102;DHT22;3081;50.584;7.032;2023-07-29T10:35:03;22.70;99.90
6102;DHT22;3081;50.584;7.032;2023-07-29T10:37:31;22.50;99.90
6102;DHT22;3081;50.584;7.032;2023-07-29T10:39:58;22.30;99.90
6102;DHT22;3081;50.584;7.032;2023-07-29T10:42:24;22.40;99.90
6102;DHT22;3081;50.584;7.032;2023-07-29T10:44:52;22.40;99.90
6102;DHT22;3081;50.584;7.032;2023-07-29T10:47:24;22.40;99.90
6102;DHT22;3081;50.584;7.032;2023-07-29T10:49:52;22.20;99.90
6102;DHT22;3081;50.584;7.032;2023-07-29T10:52:31;22.00;99.90
6102;DHT22;3081;50.584;7.032;2023-07-29T10:54:58;22.00;99.90
6102;DHT22;3081;50.584;7.032;2023-07-29T10:57:32;21.80;99.90
6102;DHT22;3081;50.584;7.032;2023-07-29T11:00:00;21.70;99.90
6102;DHT22;3081;50.584;7.032;2023-07-29T11:02:31;21.60;99.90
6102;DHT22;3081;50.584;7.032;2023-07-29T11:04:59;21.50;99.90
6102;DHT22;3081;50.584;7.032;2023-07-29T11:07:26;21.30;99.90
6102;DHT22;3081;50.584;7.032;2023-07-29T11:09:55;21.20;99.90
6102;DHT22;3081;50.584;7.032;2023-07-29T11:12:39;21.20;99.90
6102;DHT22;3081;50.584;7.032;2023-07-29T11:15:13;21.00;99.90
6102;DHT22;3081;50.584;7.032;2023-07-29T11:17:43;20.80;99.90
6102;DHT22;3081;50.584;7.032;2023-07-29T11:20:11;20.70;99.90
6102;DHT22;3081;50.584;7.032;2023-07-29T11:22:38;20.50;99.90
6102;DHT22;3081;50.584;7.032;2023-07-29T11:25:08;20.20;99.90
6102;DHT22;3081;50.584;7.032;2023-07-29T11:27:35;19.90;99.90
6102;DHT22;3081;50.584;7.032;2023-07-29T11:30:04;19.90;99.90
6102;DHT22;3081;50.584;7.032;2023-07-29T11:32:32;20.00;99.90
6102;DHT22;3081;50.584;7.032;2023-07-29T11:35:05;20.30;99.90
6102;DHT22;3081;50.584;7.032;2023-07-29T11:37:33;20.80;99.90
6102;DHT22;3081;50.584;7.032;2023-07-29T11:40:00;21.40;99.90
6102;DHT22;3081;50.584;7.032;2023-07-29T11:42:28;22.00;99.90
6102;DHT22;3081;50.584;7.032;2023-07-29T11:44:56;22.90;99.90
6102;DHT22;3081;50.584;7.032;2023-07-29T11:47:24;24.00;99.90
6102;DHT22;3081;50.584;7.032;2023-07-29T11:49:51;25.10;99.90
6102;DHT22;3081;50.584;7.032;2023-07-29T11:52:19;25.90;99.90
6102;DHT22;3081;50.584;7.032;2023-07-29T11:54:49;26.60;99.90
6102;DHT22;3081;50.584;7.032;2023-07-29T11:57:17;27.40;99.90
6102;DHT22;3081;50.584;7.032;2023-07-29T11:59:45;27.90;99.90
6102;DHT22;3081;50.584;7.032;2023-07-29T12:02:14;28.60;99.90
6102;DHT22;3081;50.584;7.032;2023-07-29T12:04:43;29.20;99.90
6102;DHT22;3081;50.584;7.032;2023-07-29T12:07:13;29.40;99.90
6102;DHT22;3081;50.584;7.032;2023-07-29T12:09:42;29.30;99.90
6102;DHT22;3081;50.584;7.032;2023-07-29T12:12:09;29.80;99.90
6102;DHT22;3081;50.584;7.032;2023-07-29T12:14:36;30.60;99.90
6102;DHT22;3081;50.584;7.032;2023-07-29T12:17:04;31.30;99.90
6102;DHT22;3081;50.584;7.032;2023-07-29T12:19:33;31.30;99.90
6102;DHT22;3081;50.584;7.032;2023-07-29T12:22:00;31.50;99.90
6102;DHT22;3081;50.584;7.032;2023-07-29T12:24:29;32.10;99.90
6102;DHT22;3081;50.584;7.032;2023-07-29T12:26:57;32.80;99.90
6102;DHT22;3081;50.584;7.032;2023-07-29T12:29:24;33.20;99.90
6102;DHT22;3081;50.584;7.032;2023-07-29T12:31:58;33.90;99.90
6102;DHT22;3081;50.584;7.032;2023-07-29T12:34:26;34.70;99.90
6102;DHT22;3081;50.584;7.032;2023-07-29T12:36:54;35.50;99.90
6102;DHT22;3081;50.584;7.032;2023-07-29T12:39:23;35.50;99.90
6102;DHT22;3081;50.584;7.032;2023-07-29T12:41:51;34.60;99.90
6102;DHT22;3081;50.584;7.032;2023-07-29T12:44:20;33.70;99.90
6102;DHT22;3081;50.584;7.032;2023-07-29T12:46:47;32.70;99.90
6102;DHT22;3081;50.584;7.032;2023-07-29T12:49:14;31.90;99.90
6102;DHT22;3081;50.584;7.032;2023-07-29T12:51:41;31.10;99.90
6102;DHT22;3081;50.584;7.032;2023-07-29T12:54:08;30.30;99.90
6102;DHT22;3081;50.584;7.032;2023-07-29T12:56:35;29.60;99.90
6102;DHT22;3081;50.584;7.032;2023-07-29T12:59:02;29.30;99.90
6102;DHT22;3081;50.584;7.032;2023-07-29T13:01:30;29.00;99.90
6102;DHT22;3081;50.584;7.032;2023-07-29T13:03:57;28.80;99.90
6102;DHT22;3081;50.584;7.032;2023-07-29T13:06:24;28.60;99.90
6102;DHT22;3081;50.584;7.032;2023-07-29T13:08:52;28.40;99.90
6102;DHT22;3081;50.584;7.032;2023-07-29T13:11:19;28.30;99.90
6102;DHT22;3081;50.584;7.032;2023-07-29T13:13:46;28.30;99.90
6102;DHT22;3081;50.584;7.032;2023-07-29T13:16:13;28.20;99.90
6102;DHT22;3081;50.584;7.032;2023-07-29T13:18:43;28.10;99.90
6102;DHT22;3081;50.584;7.032;2023-07-29T13:21:10;27.90;99.90
6102;DHT22;3081;50.584;7.032;2023-07-29T13:23:37;27.70;99.90
6102;DHT22;3081;50.584;7.032;2023-07-29T13:26:03;27.40;99.90
6102;DHT22;3081;50.584;7.032;2023-07-29T13:28:30;27.10;99.90
6102;DHT22;3081;50.584;7.032;2023-07-29T13:30:57;26.80;99.90
6102;DHT22;3081;50.584;7.032;2023-07-29T13:33:24;26.70;99.90
6102;DHT22;3081;50.584;7.032;2023-07-29T13:35:52;26.70;99.90
6102;DHT22;3081;50.584;7.032;2023-07-29T13:38:19;26.80;99.90
6102;DHT22;3081;50.584;7.032;2023-07-29T13:40:46;26.90;99.90
6102;DHT22;3081;50.584;7.032;2023-07-29T13:43:16;26.90;99.90
6102;DHT22;3081;50.584;7.032;2023-07-29T13:45:43;26.90;99.90
6102;DHT22;3081;50.584;7.032;2023-07-29T13:48:10;26.80;99.90
6102;DHT22;3081;50.584;7.032;2023-07-29T13:50:37;26.50;99.90
6102;DHT22;3081;50.584;7.032;2023-07-29T13:53:05;26.40;99.90
6102;DHT22;3081;50.584;7.032;2023-07-29T13:55:32;26.40;99.90
6102;DHT22;3081;50.584;7.032;2023-07-29T13:57:59;27.20;99.90
6102;DHT22;3081;50.584;7.032;2023-07-29T14:00:26;28.40;99.90
6102;DHT22;3081;50.584;7.032;2023-07-29T14:02:53;29.00;99.90
6102;DHT22;3081;50.584;7.032;2023-07-29T14:05:19;29.00;99.90
6102;DHT22;3081;50.584;7.032;2023-07-29T14:07:46;28.50;99.90
6102;DHT22;3081;50.584;7.032;2023-07-29T14:10:15;28.10;99.90
6102;DHT22;3081;50.584;7.032;2023-07-29T14:12:42;27.90;99.90
6102;DHT22;3081;50.584;7.032;2023-07-29T14:15:09;27.70;99.90
6102;DHT22;3081;50.584;7.032;2023-07-29T14:17:36;27.60;99.90
6102;DHT22;3081;50.584;7.032;2023-07-29T14:20:03;27.60;99.90
6102;DHT22;3081;50.584;7.032;2023-07-29T14:22:31;27.80;99.90
6102;DHT22;3081;50.584;7.032;2023-07-29T14:24:58;28.30;99.90
6102;DHT22;3081;50.584;7.032;2023-07-29T14:27:26;31.60;99.90
6102;DHT22;3081;50.584;7.032;2023-07-29T14:29:53;34.50;99.90
6102;DHT22;3081;50.584;7.032;2023-07-29T14:32:20;34.00;99.90
6102;DHT22;3081;50.584;7.032;2023-07-29T14:34:47;32.60;99.90
6102;DHT22;3081;50.584;7.032;2023-07-29T14:37:14;31.00;99.90
6102;DHT22;3081;50.584;7.032;2023-07-29T14:39:41;29.90;99.90
6102;DHT22;3081;50.584;7.032;2023-07-29T14:42:08;29.40;99.90
6102;DHT22;3081;50.584;7.032;2023-07-29T14:44:36;29.10;99.90
6102;DHT22;3081;50.584;7.032;2023-07-29T14:47:03;28.80;99.90
6102;DHT22;3081;50.584;7.032;2023-07-29T14:49:30;28.40;99.90
6102;DHT22;3081;50.584;7.032;2023-07-29T14:51:57;27.80;99.90
6102;DHT22;3081;50.584;7.032;2023-07-29T14:54:24;27.10;99.90
6102;DHT22;3081;50.584;7.032;2023-07-29T14:56:51;26.90;99.90
6102;DHT22;3081;50.584;7.032;2023-07-29T14:59:18;27.10;99.90
6102;DHT22;3081;50.584;7.032;2023-07-29T15:01:46;26.90;99.90
6102;DHT22;3081;50.584;7.032;2023-07-29T15:04:13;26.70;99.90
6102;DHT22;3081;50.584;7.032;2023-07-29T15:06:40;26.80;99.90
6102;DHT22;3081;50.584;7.032;2023-07-29T15:09:07;28.70;99.90
6102;DHT22;3081;50.584;7.032;2023-07-29T15:11:34;30.20;99.90
6102;DHT22;3081;50.584;7.032;2023-07-29T15:14:02;31.80;99.90
6102;DHT22;3081;50.584;7.032;2023-07-29T15:16:29;33.40;99.90
6102;DHT22;3081;50.584;7.032;2023-07-29T15:18:58;32.60;99.90
6102;DHT22;3081;50.584;7.032;2023-07-29T15:21:25;32.90;99.90
6102;DHT22;3081;50.584;7.032;2023-07-29T15:23:52;31.90;99.90
6102;DHT22;3081;50.584;7.032;2023-07-29T15:26:19;31.30;99.90
6102;DHT22;3081;50.584;7.032;2023-07-29T15:28:46;31.60;99.90
6102;DHT22;3081;50.584;7.032;2023-07-29T15:31:13;31.50;99.90
6102;DHT22;3081;50.584;7.032;2023-07-29T15:33:40;32.50;99.90
6102;DHT22;3081;50.584;7.032;2023-07-29T15:36:09;33.80;99.90
6102;DHT22;3081;50.584;7.032;2023-07-29T15:38:35;37.10;99.90
6102;DHT22;3081;50.584;7.032;2023-07-29T15:41:02;36.80;99.90
6102;DHT22;3081;50.584;7.032;2023-07-29T15:43:29;34.80;99.20
6102;DHT22;3081;50.584;7.032;2023-07-29T15:45:57;32.50;99.90
6102;DHT22;3081;50.584;7.032;2023-07-29T15:48:23;30.40;99.90
6102;DHT22;3081;50.584;7.032;2023-07-29T15:50:50;28.60;99.90
6102;DHT22;3081;50.584;7.032;2023-07-29T15:53:19;27.30;99.90
6102;DHT22;3081;50.584;7.032;2023-07-29T15:55:45;26.50;99.90
6102;DHT22;3081;50.584;7.032;2023-07-29T15:58:12;26.00;99.90
6102;DHT22;3081;50.584;7.032;2023-07-29T16:00:39;25.80;99.90
6102;DHT22;3081;50.584;7.032;2023-07-29T16:03:06;25.60;99.90
6102;DHT22;3081;50.584;7.032;2023-07-29T16:05:34;25.50;99.90